sensor_id;sensor_type;location;lat;lon;timestamp;pressure;altitude;pressure_sealevel;temperature;humidity
30463;BME280;17256;43.618;25.336;2023-03-14T00:02:28;100958.94;;;6.41;67.54
30463;BME280;17256;43.618;25.336;2023-03-14T00:10:19;100816.38;;;5.54;67.97
30463;BME280;17256;43.618;25.336;2023-03-14T00:13:49;100948.88;;;6.41;69.14
30463;BME280;17256;43.618;25.336;2023-03-14T00:17:10;100683.47;;;4.72;73.51
30463;BME280;17256;43.618;25.336;2023-03-14T00:20:22;100934.44;;;6.15;73.31
30463;BME280;17256;43.618;25.336;2023-03-14T00:23:08;100768.25;;;5.11;74.25
30463;BME280;17256;43.618;25.336;2023-03-14T00:25:40;100811.50;;;5.40;72.54
30463;BME280;17256;43.618;25.336;2023-03-14T00:28:54;100915.91;;;6.27;68.85
30463;BME280;17256;43.618;25.336;2023-03-14T00:32:26;100477.59;;;3.61;68.89
30463;BME280;17256;43.618;25.336;2023-03-14T00:36:36;100898.13;;;6.14;68.90
30463;BME280;17256;43.618;25.336;2023-03-14T00:40:14;100903.41;;;6.16;69.48
30463;BME280;17256;43.618;25.336;2023-03-14T00:54:05;100901.00;;;5.87;71.05
30463;BME280;17256;43.618;25.336;2023-03-14T01:00:14;100893.31;;;5.82;70.53
30463;BME280;17256;43.618;25.336;2023-03-14T01:02:57;100397.59;;;2.94;70.46
30463;BME280;17256;43.618;25.336;2023-03-14T01:05:28;100552.28;;;3.83;71.65
30463;BME280;17256;43.618;25.336;2023-03-14T01:08:10;100649.03;;;4.37;71.54
30463;BME280;17256;43.618;25.336;2023-03-14T01:11:23;100894.41;;;5.90;73.50
30463;BME280;17256;43.618;25.336;2023-03-14T01:14:00;100741.78;;;4.95;74.69
30463;BME280;17256;43.618;25.336;2023-03-14T01:16:42;100646.31;;;4.37;75.10
30463;BME280;17256;43.618;25.336;2023-03-14T01:19:13;100467.00;;;3.32;74.72
30463;BME280;17256;43.618;25.336;2023-03-14T01:21:42;100674.69;;;4.35;75.37
30463;BME280;17256;43.618;25.336;2023-03-14T01:24:11;100901.06;;;5.69;76.47
30463;BME280;17256;43.618;25.336;2023-03-14T01:26:42;100480.56;;;3.14;76.88
30463;BME280;17256;43.618;25.336;2023-03-14T01:29:23;100796.94;;;4.98;77.45
30463;BME280;17256;43.618;25.336;2023-03-14T01:31:56;100483.41;;;2.95;77.71
30463;BME280;17256;43.618;25.336;2023-03-14T01:34:24;100700.84;;;4.36;78.34
30463;BME280;17256;43.618;25.336;2023-03-14T01:36:57;100588.72;;;3.72;78.55
30463;BME280;17256;43.618;25.336;2023-03-14T01:39:24;100521.59;;;3.29;78.70
30463;BME280;17256;43.618;25.336;2023-03-14T01:42:08;100737.09;;;4.62;78.63
30463;BME280;17256;43.618;25.336;2023-03-14T01:44:59;100878.25;;;5.44;79.27
30463;BME280;17256;43.618;25.336;2023-03-14T01:47:29;100680.75;;;3.93;80.79
30463;BME280;17256;43.618;25.336;2023-03-14T01:50:06;100656.66;;;3.62;82.95
30463;BME280;17256;43.618;25.336;2023-03-14T01:52:47;100659.34;;;3.72;82.66
30463;BME280;17256;43.618;25.336;2023-03-14T01:55:24;100659.59;;;3.69;83.25
30463;BME280;17256;43.618;25.336;2023-03-14T01:58:03;100669.25;;;3.81;83.34
30463;BME280;17256;43.618;25.336;2023-03-14T02:00:30;100694.50;;;3.74;84.52
30463;BME280;17256;43.618;25.336;2023-03-14T02:03:16;100452.59;;;2.13;85.60
30463;BME280;17256;43.618;25.336;2023-03-14T02:05:59;100630.91;;;3.21;85.99
30463;BME280;17256;43.618;25.336;2023-03-14T02:08:40;100471.56;;;2.13;87.15
30463;BME280;17256;43.618;25.336;2023-03-14T02:19:06;100507.22;;;2.09;88.93
30463;BME280;17256;43.618;25.336;2023-03-14T02:22:27;100688.88;;;3.30;89.03
30463;BME280;17256;43.618;25.336;2023-03-14T02:28:21;100793.06;;;3.84;90.48
30463;BME280;17256;43.618;25.336;2023-03-14T02:30:55;100616.97;;;2.79;92.35
30463;BME280;17256;43.618;25.336;2023-03-14T02:33:26;100615.84;;;2.72;93.77
30463;BME280;17256;43.618;25.336;2023-03-14T02:36:07;100870.38;;;4.26;93.77
30463;BME280;17256;43.618;25.336;2023-03-14T02:42:05;100639.44;;;2.62;97.49
30463;BME280;17256;43.618;25.336;2023-03-14T02:44:48;100745.13;;;3.37;97.06
30463;BME280;17256;43.618;25.336;2023-03-14T02:47:23;100740.59;;;3.28;96.06
30463;BME280;17256;43.618;25.336;2023-03-14T02:50:06;100446.91;;;1.60;96.01
30463;BME280;17256;43.618;25.336;2023-03-14T02:52:40;100657.38;;;2.82;96.62
30463;BME280;17256;43.618;25.336;2023-03-14T02:55:23;100647.16;;;2.94;96.82
30463;BME280;17256;43.618;25.336;2023-03-14T03:02:35;100867.66;;;3.99;97.29
30463;BME280;17256;43.618;25.336;2023-03-14T03:05:38;100682.38;;;2.76;97.97
30463;BME280;17256;43.618;25.336;2023-03-14T03:08:09;100897.81;;;3.96;100.00
30463;BME280;17256;43.618;25.336;2023-03-14T03:10:38;100729.56;;;3.02;100.00
30463;BME280;17256;43.618;25.336;2023-03-14T03:13:12;100864.31;;;3.68;100.00
30463;BME280;17256;43.618;25.336;2023-03-14T03:15:49;100714.63;;;2.79;100.00
30463;BME280;17256;43.618;25.336;2023-03-14T03:18:31;100777.50;;;3.12;100.00
30463;BME280;17256;43.618;25.336;2023-03-14T03:21:22;100577.53;;;2.01;100.00
30463;BME280;17256;43.618;25.336;2023-03-14T03:27:05;100599.75;;;2.14;100.00
30463;BME280;17256;43.618;25.336;2023-03-14T03:30:06;100827.97;;;3.42;100.00
30463;BME280;17256;43.618;25.336;2023-03-14T03:33:25;100396.03;;;0.88;100.00
30463;BME280;17256;43.618;25.336;2023-03-14T03:37:14;100648.31;;;2.54;100.00
30463;BME280;17256;43.618;25.336;2023-03-14T03:40:39;100803.22;;;3.54;100.00
30463;BME280;17256;43.618;25.336;2023-03-14T03:43:37;100549.13;;;2.14;100.00
30463;BME280;17256;43.618;25.336;2023-03-14T03:47:37;100337.34;;;1.17;96.29
30463;BME280;17256;43.618;25.336;2023-03-14T03:51:03;100621.41;;;3.07;93.59
30463;BME280;17256;43.618;25.336;2023-03-14T03:53:44;100808.19;;;4.14;91.45
30463;BME280;17256;43.618;25.336;2023-03-14T03:56:22;100451.91;;;2.11;88.94
30463;BME280;17256;43.618;25.336;2023-03-14T03:59:01;100511.22;;;2.52;95.98
30463;BME280;17256;43.618;25.336;2023-03-14T04:02:18;100399.16;;;1.78;99.17
30463;BME280;17256;43.618;25.336;2023-03-14T04:06:13;100677.63;;;3.15;100.00
30463;BME280;17256;43.618;25.336;2023-03-14T04:09:47;100439.63;;;1.80;100.00
30463;BME280;17256;43.618;25.336;2023-03-14T04:13:25;100785.78;;;3.84;100.00
30463;BME280;17256;43.618;25.336;2023-03-14T04:17:19;100686.00;;;3.04;100.00
30463;BME280;17256;43.618;25.336;2023-03-14T04:20:57;100802.53;;;3.43;100.00
30463;BME280;17256;43.618;25.336;2023-03-14T04:24:14;100589.50;;;2.08;100.00
30463;BME280;17256;43.618;25.336;2023-03-14T04:27:19;100364.28;;;0.71;100.00
30463;BME280;17256;43.618;25.336;2023-03-14T04:30:28;100403.81;;;0.72;100.00
30463;BME280;17256;43.618;25.336;2023-03-14T04:33:48;100378.50;;;0.63;100.00
30463;BME280;17256;43.618;25.336;2023-03-14T04:37:06;100421.19;;;0.98;100.00
30463;BME280;17256;43.618;25.336;2023-03-14T04:43:04;100639.47;;;2.42;100.00
30463;BME280;17256;43.618;25.336;2023-03-14T04:46:06;100631.66;;;2.39;100.00
30463;BME280;17256;43.618;25.336;2023-03-14T04:48:51;100595.63;;;2.10;100.00
30463;BME280;17256;43.618;25.336;2023-03-14T04:51:26;100529.97;;;1.79;100.00
30463;BME280;17256;43.618;25.336;2023-03-14T04:54:30;100649.78;;;2.49;100.00
30463;BME280;17256;43.618;25.336;2023-03-14T04:57:45;100667.38;;;2.72;100.00
30463;BME280;17256;43.618;25.336;2023-03-14T08:45:35;100735.38;;;13.26;49.59
30463;BME280;17256;43.618;25.336;2023-03-14T08:53:07;100420.28;;;11.55;50.97
30463;BME280;17256;43.618;25.336;2023-03-14T09:01:09;100692.97;;;13.92;51.52
30463;BME280;17256;43.618;25.336;2023-03-14T09:05:08;100583.91;;;13.24;50.65
30463;BME280;17256;43.618;25.336;2023-03-14T09:08:30;100689.81;;;14.26;50.46
30463;BME280;17256;43.618;25.336;2023-03-14T09:23:00;100673.94;;;14.78;49.23
30463;BME280;17256;43.618;25.336;2023-03-14T09:26:58;100665.56;;;14.66;48.97
30463;BME280;17256;43.618;25.336;2023-03-14T09:31:08;100663.25;;;14.88;48.35
30463;BME280;17256;43.618;25.336;2023-03-14T09:34:48;100650.09;;;14.21;49.35
30463;BME280;17256;43.618;25.336;2023-03-14T09:50:50;100625.56;;;14.69;49.02
30463;BME280;17256;43.618;25.336;2023-03-14T09:57:54;100380.84;;;12.85;46.10
30463;BME280;17256;43.618;25.336;2023-03-14T10:01:49;100392.41;;;13.45;45.59
30463;BME280;17256;43.618;25.336;2023-03-14T10:05:42;100382.78;;;13.79;44.55
30463;BME280;17256;43.618;25.336;2023-03-14T10:08:49;100381.09;;;13.78;45.49
30463;BME280;17256;43.618;25.336;2023-03-14T10:19:08;100267.06;;;13.60;43.31
30463;BME280;17256;43.618;25.336;2023-03-14T10:22:03;100581.34;;;15.79;42.94
30463;BME280;17256;43.618;25.336;2023-03-14T10:25:01;100207.75;;;13.87;42.63
30463;BME280;17256;43.618;25.336;2023-03-14T10:27:51;100568.22;;;16.04;42.13
30463;BME280;17256;43.618;25.336;2023-03-14T10:31:09;100547.84;;;15.98;43.38
30463;BME280;17256;43.618;25.336;2023-03-14T10:41:55;100344.78;;;15.21;45.00
30463;BME280;17256;43.618;25.336;2023-03-14T10:47:29;100304.34;;;15.08;44.31
30463;BME280;17256;43.618;25.336;2023-03-14T10:50:30;100091.19;;;14.03;43.48
30463;BME280;17256;43.618;25.336;2023-03-14T10:53:04;100064.59;;;14.21;43.29
30463;BME280;17256;43.618;25.336;2023-03-14T10:55:52;100231.53;;;15.38;43.14
30463;BME280;17256;43.618;25.336;2023-03-14T10:58:30;100362.84;;;16.36;43.09
30463;BME280;17256;43.618;25.336;2023-03-14T11:07:42;100433.88;;;17.00;41.54
30463;BME280;17256;43.618;25.336;2023-03-14T11:10:34;100380.66;;;16.51;40.83
30463;BME280;17256;43.618;25.336;2023-03-14T11:16:59;100045.59;;;15.01;38.15
30463;BME280;17256;43.618;25.336;2023-03-14T11:19:57;100412.88;;;17.33;38.78
30463;BME280;17256;43.618;25.336;2023-03-14T11:23:08;100167.16;;;15.66;38.53
30463;BME280;17256;43.618;25.336;2023-03-14T11:29:35;100119.31;;;15.82;39.48
30463;BME280;17256;43.618;25.336;2023-03-14T11:35:27;100256.25;;;16.95;38.73
30463;BME280;17256;43.618;25.336;2023-03-14T11:38:51;100363.59;;;17.57;38.23
30463;BME280;17256;43.618;25.336;2023-03-14T11:41:37;100133.06;;;16.34;37.69
30463;BME280;17256;43.618;25.336;2023-03-14T11:44:32;100151.25;;;16.70;38.44
30463;BME280;17256;43.618;25.336;2023-03-14T11:48:07;100018.59;;;16.00;37.01
30463;BME280;17256;43.618;25.336;2023-03-14T11:51:02;100254.06;;;17.64;36.81
30463;BME280;17256;43.618;25.336;2023-03-14T11:54:08;100119.16;;;16.91;37.97
30463;BME280;17256;43.618;25.336;2023-03-14T12:00:19;100324.34;;;17.98;36.90
30463;BME280;17256;43.618;25.336;2023-03-14T12:03:20;100313.50;;;17.80;38.00
30463;BME280;17256;43.618;25.336;2023-03-14T12:09:29;100295.25;;;18.06;37.24
30463;BME280;17256;43.618;25.336;2023-03-14T12:12:03;99959.19;;;16.24;37.59
30463;BME280;17256;43.618;25.336;2023-03-14T12:14:37;100021.38;;;17.01;37.83
30463;BME280;17256;43.618;25.336;2023-03-14T12:17:22;100267.72;;;18.65;36.94
30463;BME280;17256;43.618;25.336;2023-03-14T12:20:20;100103.97;;;17.71;36.93
30463;BME280;17256;43.618;25.336;2023-03-14T12:23:04;100244.50;;;18.81;36.75
30463;BME280;17256;43.618;25.336;2023-03-14T12:28:43;100112.88;;;17.95;36.60
30463;BME280;17256;43.618;25.336;2023-03-14T12:31:47;100228.72;;;18.87;36.57
30463;BME280;17256;43.618;25.336;2023-03-14T12:34:38;100083.50;;;18.04;36.74
30463;BME280;17256;43.618;25.336;2023-03-14T12:37:40;100023.25;;;17.82;36.68
30463;BME280;17256;43.618;25.336;2023-03-14T12:40:39;100211.19;;;18.86;37.05
30463;BME280;17256;43.618;25.336;2023-03-14T12:43:33;100160.84;;;18.61;37.23
30463;BME280;17256;43.618;25.336;2023-03-14T12:46:25;100203.47;;;18.93;36.87
30463;BME280;17256;43.618;25.336;2023-03-14T12:49:11;100000.47;;;17.80;36.51
30463;BME280;17256;43.618;25.336;2023-03-14T12:51:47;100039.09;;;18.09;36.34
30463;BME280;17256;43.618;25.336;2023-03-14T12:54:40;100198.81;;;19.04;36.17
30463;BME280;17256;43.618;25.336;2023-03-14T12:57:47;100196.66;;;18.79;36.20
30463;BME280;17256;43.618;25.336;2023-03-14T13:00:51;99816.50;;;16.66;36.29
30463;BME280;17256;43.618;25.336;2023-03-14T13:03:38;99844.63;;;16.96;36.64
30463;BME280;17256;43.618;25.336;2023-03-14T13:06:49;100177.53;;;19.20;37.23
30463;BME280;17256;43.618;25.336;2023-03-14T13:12:16;99842.66;;;17.18;37.98
30463;BME280;17256;43.618;25.336;2023-03-14T13:14:52;100060.41;;;18.57;38.42
30463;BME280;17256;43.618;25.336;2023-03-14T13:17:35;100048.50;;;18.62;38.66
30463;BME280;17256;43.618;25.336;2023-03-14T13:28:35;99915.00;;;17.88;38.05
30463;BME280;17256;43.618;25.336;2023-03-14T13:44:56;100130.41;;;19.50;39.02
30463;BME280;17256;43.618;25.336;2023-03-14T13:49:09;100118.94;;;19.42;38.51
30463;BME280;17256;43.618;25.336;2023-03-14T13:52:38;99856.84;;;17.49;38.36
30463;BME280;17256;43.618;25.336;2023-03-14T13:55:21;99742.00;;;16.47;38.68
30463;BME280;17256;43.618;25.336;2023-03-14T13:57:53;100112.16;;;18.85;39.24
30463;BME280;17256;43.618;25.336;2023-03-14T14:00:35;99880.63;;;17.40;38.93
30463;BME280;17256;43.618;25.336;2023-03-14T14:03:22;99739.91;;;16.59;39.58
30463;BME280;17256;43.618;25.336;2023-03-14T14:06:01;100095.75;;;18.89;39.21
30463;BME280;17256;43.618;25.336;2023-03-14T14:08:42;99692.06;;;16.42;39.20
30463;BME280;17256;43.618;25.336;2023-03-14T14:11:54;100064.97;;;18.63;39.21
30463;BME280;17256;43.618;25.336;2023-03-14T14:14:44;99794.22;;;17.04;39.64
30463;BME280;17256;43.618;25.336;2023-03-14T14:17:30;100055.81;;;18.41;40.25
30463;BME280;17256;43.618;25.336;2023-03-14T14:24:30;99899.41;;;17.60;40.44
30463;BME280;17256;43.618;25.336;2023-03-14T14:28:34;99651.56;;;15.92;40.73
30463;BME280;17256;43.618;25.336;2023-03-14T14:32:14;99885.75;;;17.26;40.80
30463;BME280;17256;43.618;25.336;2023-03-14T14:34:59;99642.75;;;15.74;40.60
30463;BME280;17256;43.618;25.336;2023-03-14T14:37:48;100016.44;;;17.90;41.16
30463;BME280;17256;43.618;25.336;2023-03-14T14:40:31;99890.72;;;17.24;41.66
30463;BME280;17256;43.618;25.336;2023-03-14T14:43:05;100008.78;;;18.07;41.27
30463;BME280;17256;43.618;25.336;2023-03-14T14:45:54;99764.06;;;16.37;41.66
30463;BME280;17256;43.618;25.336;2023-03-14T14:48:41;99662.69;;;15.76;41.44
30463;BME280;17256;43.618;25.336;2023-03-14T14:51:41;99852.25;;;16.84;41.68
30463;BME280;17256;43.618;25.336;2023-03-14T14:54:18;99744.72;;;16.20;41.30
30463;BME280;17256;43.618;25.336;2023-03-14T14:57:02;99646.69;;;15.61;41.30
30463;BME280;17256;43.618;25.336;2023-03-14T14:59:54;99778.28;;;16.46;41.49
30463;BME280;17256;43.618;25.336;2023-03-14T15:03:00;99974.47;;;17.65;41.61
30463;BME280;17256;43.618;25.336;2023-03-14T15:08:59;99966.78;;;17.50;41.65
30463;BME280;17256;43.618;25.336;2023-03-14T15:11:53;99751.81;;;16.11;41.79
30463;BME280;17256;43.618;25.336;2023-03-14T15:17:59;99956.69;;;17.17;42.09
30463;BME280;17256;43.618;25.336;2023-03-14T15:26:29;99856.19;;;16.49;42.47
30463;BME280;17256;43.618;25.336;2023-03-14T15:29:02;99600.88;;;14.93;42.94
30463;BME280;17256;43.618;25.336;2023-03-14T15:31:28;99934.75;;;16.94;42.96
30463;BME280;17256;43.618;25.336;2023-03-14T15:34:15;99576.91;;;14.65;43.04
30463;BME280;17256;43.618;25.336;2023-03-14T15:37:25;99913.44;;;16.60;43.43
30463;BME280;17256;43.618;25.336;2023-03-14T15:40:14;99778.47;;;15.62;43.41
30463;BME280;17256;43.618;25.336;2023-03-14T15:42:47;99916.41;;;16.54;43.90
30463;BME280;17256;43.618;25.336;2023-03-14T15:45:16;99693.44;;;14.90;44.05
30463;BME280;17256;43.618;25.336;2023-03-14T15:47:44;99783.53;;;15.36;43.70
30463;BME280;17256;43.618;25.336;2023-03-14T15:50:38;99801.41;;;15.46;43.71
30463;BME280;17256;43.618;25.336;2023-03-14T15:53:22;99683.97;;;14.58;43.83
30463;BME280;17256;43.618;25.336;2023-03-14T15:55:51;99669.66;;;14.44;44.92
30463;BME280;17256;43.618;25.336;2023-03-14T15:58:20;99511.81;;;13.38;43.98
30463;BME280;17256;43.618;25.336;2023-03-14T16:00:52;99917.19;;;15.82;43.62
30463;BME280;17256;43.618;25.336;2023-03-14T16:03:51;99571.22;;;13.69;43.75
30463;BME280;17256;43.618;25.336;2023-03-14T16:06:23;99664.28;;;14.26;43.81
30463;BME280;17256;43.618;25.336;2023-03-14T16:09:12;99834.44;;;15.07;44.72
30463;BME280;17256;43.618;25.336;2023-03-14T16:11:57;99809.88;;;14.94;44.40
30463;BME280;17256;43.618;25.336;2023-03-14T16:15:29;99921.13;;;15.41;45.28
30463;BME280;17256;43.618;25.336;2023-03-14T16:18:12;99517.03;;;12.76;44.56
30463;BME280;17256;43.618;25.336;2023-03-14T16:21:00;99651.72;;;13.66;44.19
30463;BME280;17256;43.618;25.336;2023-03-14T16:23:35;99736.81;;;14.09;44.33
30463;BME280;17256;43.618;25.336;2023-03-14T16:26:17;99621.53;;;13.48;44.48
30463;BME280;17256;43.618;25.336;2023-03-14T16:28:55;99801.97;;;14.34;44.38
30463;BME280;17256;43.618;25.336;2023-03-14T16:31:30;99649.72;;;13.50;43.99
30463;BME280;17256;43.618;25.336;2023-03-14T16:34:20;99733.47;;;14.07;43.48
30463;BME280;17256;43.618;25.336;2023-03-14T16:36:46;99436.22;;;12.24;44.28
30463;BME280;17256;43.618;25.336;2023-03-14T16:39:14;99706.78;;;13.73;43.36
30463;BME280;17256;43.618;25.336;2023-03-14T16:41:40;99767.56;;;14.13;43.70
30463;BME280;17256;43.618;25.336;2023-03-14T16:44:10;99710.75;;;13.65;44.68
30463;BME280;17256;43.618;25.336;2023-03-14T16:47:02;99654.63;;;13.36;43.50
30463;BME280;17256;43.618;25.336;2023-03-14T16:49:34;99558.97;;;12.78;43.77
30463;BME280;17256;43.618;25.336;2023-03-14T16:52:15;99547.47;;;12.70;44.26
30463;BME280;17256;43.618;25.336;2023-03-14T16:54:51;99606.66;;;12.90;45.07
30463;BME280;17256;43.618;25.336;2023-03-14T16:57:24;99701.06;;;13.39;45.08
30463;BME280;17256;43.618;25.336;2023-03-14T16:59:54;99352.41;;;11.20;45.71
30463;BME280;17256;43.618;25.336;2023-03-14T17:02:25;99411.78;;;11.62;46.32
30463;BME280;17256;43.618;25.336;2023-03-14T17:04:57;99697.66;;;13.37;45.92
30463;BME280;17256;43.618;25.336;2023-03-14T17:07:23;99597.50;;;12.55;46.37
30463;BME280;17256;43.618;25.336;2023-03-14T17:09:50;99768.78;;;13.59;46.52
30463;BME280;17256;43.618;25.336;2023-03-14T17:12:36;99811.53;;;13.91;47.25
30463;BME280;17256;43.618;25.336;2023-03-14T17:15:07;99402.38;;;11.28;47.45
30463;BME280;17256;43.618;25.336;2023-03-14T17:17:33;99467.56;;;11.69;47.90
30463;BME280;17256;43.618;25.336;2023-03-14T17:20:04;99672.66;;;12.85;48.03
30463;BME280;17256;43.618;25.336;2023-03-14T17:22:39;99604.97;;;12.24;48.73
30463;BME280;17256;43.618;25.336;2023-03-14T17:25:09;99716.41;;;12.93;48.63
30463;BME280;17256;43.618;25.336;2023-03-14T17:27:41;99630.06;;;12.46;47.56
30463;BME280;17256;43.618;25.336;2023-03-14T17:30:09;99549.06;;;11.82;46.72
30463;BME280;17256;43.618;25.336;2023-03-14T17:32:35;99524.91;;;11.84;44.74
30463;BME280;17256;43.618;25.336;2023-03-14T17:35:04;99688.03;;;12.93;44.75
30463;BME280;17256;43.618;25.336;2023-03-14T17:37:31;99571.56;;;12.21;44.14
30463;BME280;17256;43.618;25.336;2023-03-14T17:40:01;99684.19;;;12.94;44.73
30463;BME280;17256;43.618;25.336;2023-03-14T17:42:30;99722.97;;;13.34;44.63
30463;BME280;17256;43.618;25.336;2023-03-14T17:44:59;99645.97;;;12.98;44.81
30463;BME280;17256;43.618;25.336;2023-03-14T17:47:46;99601.63;;;12.64;44.84
30463;BME280;17256;43.618;25.336;2023-03-14T17:50:14;99727.78;;;13.50;44.26
30463;BME280;17256;43.618;25.336;2023-03-14T17:52:40;99424.88;;;11.67;43.80
30463;BME280;17256;43.618;25.336;2023-03-14T17:55:16;99505.00;;;12.12;44.48
30463;BME280;17256;43.618;25.336;2023-03-14T17:57:45;99724.41;;;13.48;44.02
30463;BME280;17256;43.618;25.336;2023-03-14T18:00:14;99775.06;;;13.66;44.04
30463;BME280;17256;43.618;25.336;2023-03-14T18:02:42;99398.22;;;11.37;43.72
30463;BME280;17256;43.618;25.336;2023-03-14T18:05:39;99439.28;;;11.62;43.35
30463;BME280;17256;43.618;25.336;2023-03-14T18:08:11;99401.56;;;11.39;42.66
30463;BME280;17256;43.618;25.336;2023-03-14T18:10:42;99376.91;;;11.21;42.94
30463;BME280;17256;43.618;25.336;2023-03-14T18:13:15;99396.06;;;11.39;42.71
30463;BME280;17256;43.618;25.336;2023-03-14T18:15:56;99411.00;;;11.32;42.97
30463;BME280;17256;43.618;25.336;2023-03-14T18:18:30;99765.56;;;13.50;42.80
30463;BME280;17256;43.618;25.336;2023-03-14T18:21:10;99700.25;;;12.97;43.00
30463;BME280;17256;43.618;25.336;2023-03-14T18:23:41;99436.28;;;11.22;42.88
30463;BME280;17256;43.618;25.336;2023-03-14T18:26:33;99558.75;;;11.85;43.12
30463;BME280;17256;43.618;25.336;2023-03-14T18:29:19;99523.94;;;11.60;42.67
30463;BME280;17256;43.618;25.336;2023-03-14T18:32:00;99530.94;;;11.75;43.20
30463;BME280;17256;43.618;25.336;2023-03-14T18:34:50;99358.06;;;10.76;42.63
30463;BME280;17256;43.618;25.336;2023-03-14T18:37:33;99669.81;;;12.50;43.16
30463;BME280;17256;43.618;25.336;2023-03-14T18:40:11;99763.88;;;12.96;43.10
30463;BME280;17256;43.618;25.336;2023-03-14T18:42:58;99645.13;;;12.14;43.56
30463;BME280;17256;43.618;25.336;2023-03-14T18:45:30;99727.00;;;12.67;42.99
30463;BME280;17256;43.618;25.336;2023-03-14T18:48:00;99395.22;;;10.61;42.34
30463;BME280;17256;43.618;25.336;2023-03-14T18:50:35;99515.19;;;11.33;42.07
30463;BME280;17256;43.618;25.336;2023-03-14T18:53:04;99366.53;;;10.38;42.07
30463;BME280;17256;43.618;25.336;2023-03-14T18:55:36;99656.78;;;12.16;41.94
30463;BME280;17256;43.618;25.336;2023-03-14T18:58:05;99366.16;;;10.35;42.11
30463;BME280;17256;43.618;25.336;2023-03-14T19:00:33;99583.81;;;11.58;42.09
30463;BME280;17256;43.618;25.336;2023-03-14T19:03:07;99562.28;;;11.37;42.09
30463;BME280;17256;43.618;25.336;2023-03-14T19:05:42;99562.00;;;11.27;41.81
30463;BME280;17256;43.618;25.336;2023-03-14T19:08:10;99781.88;;;12.50;41.73
30463;BME280;17256;43.618;25.336;2023-03-14T19:10:40;99368.69;;;10.11;41.35
30463;BME280;17256;43.618;25.336;2023-03-14T19:13:10;99727.69;;;12.32;41.58
30463;BME280;17256;43.618;25.336;2023-03-14T19:16:12;99611.31;;;11.58;41.46
30463;BME280;17256;43.618;25.336;2023-03-14T19:18:45;99635.47;;;11.75;41.39
30463;BME280;17256;43.618;25.336;2023-03-14T19:21:29;99331.31;;;9.74;41.45
30463;BME280;17256;43.618;25.336;2023-03-14T19:24:03;99499.63;;;10.72;41.15
30463;BME280;17256;43.618;25.336;2023-03-14T19:26:51;99571.19;;;11.21;40.96
30463;BME280;17256;43.618;25.336;2023-03-14T19:29:20;99441.66;;;10.44;40.71
30463;BME280;17256;43.618;25.336;2023-03-14T19:31:52;99497.59;;;10.68;41.00
30463;BME280;17256;43.618;25.336;2023-03-14T19:34:32;99615.59;;;11.54;40.82
30463;BME280;17256;43.618;25.336;2023-03-14T19:36:59;99733.84;;;12.16;40.91
30463;BME280;17256;43.618;25.336;2023-03-14T19:39:26;99636.44;;;11.62;40.58
30463;BME280;17256;43.618;25.336;2023-03-14T19:41:54;99580.63;;;11.25;41.00
30463;BME280;17256;43.618;25.336;2023-03-14T19:44:25;99477.09;;;10.45;40.80
30463;BME280;17256;43.618;25.336;2023-03-14T19:47:01;99419.66;;;10.26;40.73
30463;BME280;17256;43.618;25.336;2023-03-14T19:49:39;99607.97;;;11.38;40.82
30463;BME280;17256;43.618;25.336;2023-03-14T19:52:06;99576.56;;;11.09;41.12
30463;BME280;17256;43.618;25.336;2023-03-14T19:54:32;99645.09;;;11.47;41.00
30463;BME280;17256;43.618;25.336;2023-03-14T19:57:00;99723.75;;;11.91;41.03
30463;BME280;17256;43.618;25.336;2023-03-14T19:59:31;99416.22;;;10.05;40.64
30463;BME280;17256;43.618;25.336;2023-03-14T20:02:00;99731.38;;;11.89;40.26
30463;BME280;17256;43.618;25.336;2023-03-14T20:04:44;99644.53;;;11.38;40.48
30463;BME280;17256;43.618;25.336;2023-03-14T20:07:13;99564.72;;;10.90;40.63
30463;BME280;17256;43.618;25.336;2023-03-14T20:09:50;99332.38;;;9.48;40.27
30463;BME280;17256;43.618;25.336;2023-03-14T20:12:19;99467.53;;;10.30;40.27
30463;BME280;17256;43.618;25.336;2023-03-14T20:14:58;99431.38;;;10.08;39.95
30463;BME280;17256;43.618;25.336;2023-03-14T20:17:37;99459.41;;;10.16;40.23
30463;BME280;17256;43.618;25.336;2023-03-14T20:20:11;99279.38;;;9.04;40.02
30463;BME280;17256;43.618;25.336;2023-03-14T20:23:06;99564.19;;;10.82;40.15
30463;BME280;17256;43.618;25.336;2023-03-14T20:25:57;99702.41;;;11.68;40.00
30463;BME280;17256;43.618;25.336;2023-03-14T20:28:27;99466.22;;;10.07;40.20
30463;BME280;17256;43.618;25.336;2023-03-14T20:30:57;99510.34;;;10.56;40.16
30463;BME280;17256;43.618;25.336;2023-03-14T20:33:29;99498.66;;;10.17;40.38
30463;BME280;17256;43.618;25.336;2023-03-14T20:36:43;99699.16;;;11.53;40.33
30463;BME280;17256;43.618;25.336;2023-03-14T20:39:26;99498.78;;;10.29;40.40
30463;BME280;17256;43.618;25.336;2023-03-14T20:42:19;99543.69;;;10.59;40.01
30463;BME280;17256;43.618;25.336;2023-03-14T20:45:30;99694.34;;;11.49;40.08
30463;BME280;17256;43.618;25.336;2023-03-14T20:48:03;99651.75;;;11.15;40.50
30463;BME280;17256;43.618;25.336;2023-03-14T20:50:38;99610.97;;;10.93;40.09
30463;BME280;17256;43.618;25.336;2023-03-14T20:53:12;99234.38;;;8.62;40.05
30463;BME280;17256;43.618;25.336;2023-03-14T20:55:42;99417.44;;;9.60;40.24
30463;BME280;17256;43.618;25.336;2023-03-14T20:58:10;99269.28;;;8.67;40.23
30463;BME280;17256;43.618;25.336;2023-03-14T21:00:48;99262.25;;;8.84;39.84
30463;BME280;17256;43.618;25.336;2023-03-14T21:03:33;99436.88;;;9.83;40.23
30463;BME280;17256;43.618;25.336;2023-03-14T21:06:11;99651.88;;;11.26;40.04
30463;BME280;17256;43.618;25.336;2023-03-14T21:08:38;99223.81;;;8.66;40.26
30463;BME280;17256;43.618;25.336;2023-03-14T21:11:12;99553.09;;;10.70;40.46